עמוד ראשי
METAR-TAF:

METAR-TAF

שדות תעופה :

טהיטי, פולינזיה הצרפתית

קו רוחב: 17-33S, קו אורך: 149-37W, גובה: 2מטר

תצפית מזג אוויר נוכחית

הדו"ח נערך לפני 38דקות, בשעה 01:00 UTC
רוח 7קשר מכיוון מערב/צפון-מערב
טמפרטורת 28 צלסיוס
לחות 58%
לחץ 1014 hPa
ראות 10 קילומטר או יותר
עננים פזורים בגובה 4600רגל

METAR: NTAA 130100Z AUTO 30007KT 9999 SCT046 28/19 Q1014 NOSIG

זמן: 15:38 (01:38 UTC)

תחזית

הדו"ח נערך לפני 2 שעות ו 38דקות, בשעה 23:00 UTC
תחזית בתוקף מ 13 ב 00 UTC עד 14 ב 06 UTC
רוח 5קשר עם כיוונים משתנים
ראות 10 קילומטר או יותר
מעט עננים בגובה 2500רגל

TAF: NTAA 122300Z 1300/1406 VRB05KT 9999 FEW025

תצפיות ותחזיות מזג אוויר לגבי יותר מ- 4,000 שדות תעופה ברחבי העולם. דוחות METAR ו- TAF.

התחנות הזמינות מסומנות בנקודות צהובות ואדומות על גבי המפה.

העבר את העכבר לנקודה הצבעונית על מנת לראות את שם התחנה.

לאחר מכן, לחץ כדי לראות את תוכן ואת תחזיות מזג האוויר.

כדי לשנות את המפה: לחץ על הכפתורים הירוקים עם הפלוס השחור כדי להתקרב; על הכפתור הירוק עם המקף כדי להתרחק; או בחיצים הירוקים למפות סמוכות.


METAR-TAF: